createdAt,value
2018-01-28T00:00:26.022Z,21.9
2018-01-28T00:01:26.069Z,22
2018-01-28T00:02:25.978Z,22
2018-01-28T00:03:25.776Z,22
2018-01-28T00:04:25.756Z,22.1
2018-01-28T00:05:25.631Z,22.1
2018-01-28T00:06:25.674Z,22.1
2018-01-28T00:07:25.464Z,22.1
2018-01-28T00:08:25.443Z,22.1
2018-01-28T00:09:25.319Z,22.2
2018-01-28T00:10:25.247Z,22.3
2018-01-28T00:11:25.175Z,22.3
2018-01-28T00:12:25.067Z,22.3
2018-01-28T00:13:25.166Z,22.3
2018-01-28T00:14:24.909Z,22.2
2018-01-28T00:15:24.896Z,22.1
2018-01-28T00:16:24.767Z,21.9
2018-01-28T00:17:24.703Z,21.6
2018-01-28T00:18:24.617Z,21.6
2018-01-28T00:19:24.610Z,21.5
2018-01-28T00:20:24.501Z,21.4
2018-01-28T00:21:24.379Z,21.4
2018-01-28T00:22:24.313Z,21.5
2018-01-28T00:23:24.202Z,21.5
2018-01-28T00:24:24.188Z,21.6
2018-01-28T00:25:24.046Z,21.6
2018-01-28T00:26:24.002Z,21.6
2018-01-28T00:27:23.919Z,21.6
2018-01-28T00:28:23.945Z,21.7
2018-01-28T00:29:23.744Z,21.8
2018-01-28T00:30:23.715Z,21.8
2018-01-28T00:31:23.574Z,21.8
2018-01-28T00:32:23.562Z,21.8
2018-01-28T00:33:23.416Z,21.9
2018-01-28T00:34:23.358Z,21.9
2018-01-28T00:35:23.326Z,21.9
2018-01-28T00:36:23.185Z,21.9
2018-01-28T00:37:23.130Z,21.9
2018-01-28T00:38:23.138Z,22
2018-01-28T00:39:23.083Z,22
2018-01-28T00:40:23.165Z,22.1
2018-01-28T00:41:22.966Z,22.1
2018-01-28T00:42:22.809Z,22.1
2018-01-28T00:43:22.662Z,22.1
2018-01-28T00:44:22.642Z,22.1
2018-01-28T00:45:22.652Z,22.2
2018-01-28T00:46:22.487Z,22.1
2018-01-28T00:47:22.495Z,22.2
2018-01-28T00:48:22.250Z,22.2
2018-01-28T00:49:22.296Z,22.3
2018-01-28T00:50:22.420Z,22.3
2018-01-28T00:51:22.014Z,22.3
2018-01-28T00:52:22.058Z,22.3
2018-01-28T00:53:21.857Z,22.3
2018-01-28T00:54:21.795Z,22.3
2018-01-28T00:55:21.777Z,22.4
2018-01-28T00:56:21.671Z,22.4
2018-01-28T00:57:21.708Z,22.4
2018-01-28T00:58:21.556Z,22.4
2018-01-28T00:59:21.386Z,22.4
2018-01-28T01:00:21.323Z,22.6
2018-01-28T01:01:21.327Z,22.6
2018-01-28T01:02:21.314Z,22.6
2018-01-28T01:03:21.057Z,22.6
2018-01-28T01:04:21.052Z,22.6
2018-01-28T01:05:21.012Z,22.6
2018-01-28T01:06:20.848Z,22.7
2018-01-28T01:07:20.921Z,22.8
2018-01-28T01:08:20.753Z,23
2018-01-28T01:09:20.723Z,23.2
2018-01-28T01:10:20.522Z,23.1
2018-01-28T01:11:20.569Z,23.1
2018-01-28T01:12:20.462Z,23.1
2018-01-28T01:13:20.336Z,23.2
2018-01-28T01:14:20.229Z,23.3
2018-01-28T01:15:20.119Z,23.1
2018-01-28T01:16:20.176Z,22.9
2018-01-28T01:17:19.972Z,23
2018-01-28T01:18:20.058Z,22.9
2018-01-28T01:19:19.805Z,22.9
2018-01-28T01:20:19.754Z,22.6
2018-01-28T01:21:19.657Z,22.4
2018-01-28T01:22:19.696Z,22.3
2018-01-28T01:23:19.549Z,22.1
2018-01-28T01:24:19.407Z,22
2018-01-28T01:25:19.329Z,21.9
2018-01-28T01:26:19.314Z,21.9
2018-01-28T01:27:19.187Z,21.8
2018-01-28T01:28:19.231Z,21.8
2018-01-28T01:29:19.031Z,21.8
2018-01-28T01:30:18.947Z,21.8
2018-01-28T01:31:19.205Z,21.8
2018-01-28T01:32:18.793Z,21.8
2018-01-28T01:33:18.731Z,21.8
2018-01-28T01:34:18.711Z,21.8
2018-01-28T01:35:18.721Z,21.8
2018-01-28T01:36:18.555Z,21.8
2018-01-28T01:37:18.452Z,21.8
2018-01-28T01:38:18.330Z,21.8
2018-01-28T01:39:18.291Z,21.8
2018-01-28T01:40:18.151Z,21.8
2018-01-28T01:41:18.104Z,21.9
2018-01-28T01:42:18.008Z,21.9
2018-01-28T01:43:18.049Z,21.9
2018-01-28T01:44:17.950Z,22
2018-01-28T01:45:17.934Z,22
2018-01-28T01:46:17.790Z,22
2018-01-28T01:47:17.715Z,22.1
2018-01-28T01:48:17.587Z,22.1
2018-01-28T01:49:17.442Z,22.1
2018-01-28T01:50:17.714Z,22.1
2018-01-28T01:51:17.284Z,22.1
2018-01-28T01:52:17.531Z,22.1
2018-01-28T01:53:17.140Z,22.2
2018-01-28T01:54:17.072Z,22.2
2018-01-28T01:55:16.967Z,22.3
2018-01-28T01:56:17.071Z,22.3
2018-01-28T01:57:16.814Z,22.3
2018-01-28T01:58:16.916Z,22.3
2018-01-28T01:59:16.669Z,22.3
2018-01-28T02:00:16.608Z,22.4
2018-01-28T02:01:16.502Z,22.4
2018-01-28T02:02:16.456Z,22.4
2018-01-28T02:03:16.371Z,22.4
2018-01-28T02:04:16.374Z,22.5
2018-01-28T02:05:16.217Z,22.5
2018-01-28T02:06:16.104Z,22.5
2018-01-28T02:07:16.090Z,22.5
2018-01-28T02:08:16.100Z,22.5
2018-01-28T02:09:15.932Z,22.6
2018-01-28T02:10:15.814Z,22.6
2018-01-28T02:11:15.725Z,22.6
2018-01-28T02:12:15.769Z,22.6
2018-01-28T02:13:15.555Z,22.6
2018-01-28T02:14:15.653Z,22.6
2018-01-28T02:15:15.413Z,22.7
2018-01-28T02:16:15.453Z,22.7
2018-01-28T02:17:15.240Z,22.7
2018-01-28T02:18:15.305Z,22.6
2018-01-28T02:19:15.434Z,22.7
2018-01-28T02:20:15.116Z,22.9
2018-01-28T02:21:14.954Z,23.1
2018-01-28T02:22:14.875Z,23.1
2018-01-28T02:23:14.780Z,23.1
2018-01-28T02:24:14.868Z,23.1
2018-01-28T02:25:14.703Z,23.2
2018-01-28T02:26:14.558Z,23.3
2018-01-28T02:27:14.591Z,23.2
2018-01-28T02:28:14.487Z,23
2018-01-28T02:29:14.362Z,22.9
2018-01-28T02:30:14.220Z,22.9
2018-01-28T02:31:14.169Z,22.9
2018-01-28T02:32:14.075Z,22.8
2018-01-28T02:33:14.015Z,22.6
2018-01-28T02:34:13.946Z,22.4
2018-01-28T02:35:13.824Z,22.3
2018-01-28T02:36:13.860Z,22.1
2018-01-28T02:37:13.698Z,22
2018-01-28T02:38:13.592Z,21.9
2018-01-28T02:39:13.688Z,21.9
2018-01-28T02:40:13.524Z,21.9
2018-01-28T02:41:13.531Z,21.8
2018-01-28T02:42:13.396Z,21.8
2018-01-28T02:43:13.196Z,21.8
2018-01-28T02:44:13.183Z,21.8
2018-01-28T02:45:13.152Z,21.8
2018-01-28T02:46:12.989Z,21.8
2018-01-28T02:47:12.896Z,21.7
2018-01-28T02:48:12.942Z,21.8
2018-01-28T02:49:12.723Z,21.8
2018-01-28T02:50:12.710Z,21.8
2018-01-28T02:51:12.565Z,21.8
2018-01-28T02:52:12.518Z,21.8
2018-01-28T02:53:12.423Z,21.8
2018-01-28T02:54:12.359Z,21.8
2018-01-28T02:55:12.266Z,21.9
2018-01-28T02:56:12.238Z,21.9
2018-01-28T02:57:12.097Z,21.9
2018-01-28T02:58:12.142Z,21.9
2018-01-28T02:59:11.999Z,22
2018-01-28T03:00:11.857Z,22
2018-01-28T03:01:11.958Z,22
2018-01-28T03:02:11.699Z,22
2018-01-28T03:03:11.758Z,22
2018-01-28T03:04:11.555Z,22
2018-01-28T03:05:11.600Z,22.1
2018-01-28T03:06:11.524Z,22.1
2018-01-28T03:07:11.311Z,22.1
2018-01-28T03:08:11.292Z,22.1
2018-01-28T03:09:11.148Z,22.2
2018-01-28T03:10:11.206Z,22.2
2018-01-28T03:11:11.108Z,22.3
2018-01-28T03:12:10.977Z,22.3
2018-01-28T03:13:10.927Z,22.3
2018-01-28T03:14:10.881Z,22.3
2018-01-28T03:15:10.708Z,22.4
2018-01-28T03:16:10.613Z,22.4
2018-01-28T03:17:10.883Z,22.5
2018-01-28T03:18:10.443Z,22.5
2018-01-28T03:19:10.362Z,22.5
2018-01-28T03:20:10.463Z,22.6
2018-01-28T03:21:10.220Z,22.6
2018-01-28T03:22:10.149Z,22.6
2018-01-28T03:23:10.079Z,22.6
2018-01-28T03:24:10.268Z,22.6
2018-01-28T03:25:09.958Z,22.7
2018-01-28T03:26:09.931Z,22.7
2018-01-28T03:27:09.762Z,22.6
2018-01-28T03:28:09.657Z,22.7
2018-01-28T03:29:09.642Z,22.7
2018-01-28T03:30:09.625Z,22.7
2018-01-28T03:31:09.721Z,22.8
2018-01-28T03:32:09.481Z,22.9
2018-01-28T03:33:09.262Z,23.1
2018-01-28T03:34:09.535Z,23.1
2018-01-28T03:35:09.121Z,23.1
2018-01-28T03:36:09.165Z,23.1
2018-01-28T03:37:08.961Z,23.2
2018-01-28T03:38:08.986Z,23.3
2018-01-28T03:39:08.856Z,23.1
2018-01-28T03:40:09.008Z,22.9
2018-01-28T03:41:08.665Z,22.9
2018-01-28T03:42:08.555Z,23
2018-01-28T03:43:08.657Z,22.9
2018-01-28T03:44:08.398Z,22.8
2018-01-28T03:45:08.384Z,22.5
2018-01-28T03:46:08.367Z,22.3
2018-01-28T03:47:08.194Z,22.2
2018-01-28T03:48:08.097Z,22.1
2018-01-28T03:49:08.067Z,21.9
2018-01-28T03:50:07.924Z,21.9
2018-01-28T03:51:07.910Z,21.8
2018-01-28T03:52:07.767Z,21.8
2018-01-28T03:53:08.007Z,21.7
2018-01-28T03:54:07.653Z,21.7
2018-01-28T03:55:07.535Z,21.7
2018-01-28T03:56:07.484Z,21.7
2018-01-28T03:57:07.388Z,21.6
2018-01-28T03:58:07.614Z,21.7
2018-01-28T03:59:07.329Z,21.6
2018-01-28T04:00:07.316Z,21.7
2018-01-28T04:01:07.199Z,21.7
2018-01-28T04:02:07.009Z,21.7
2018-01-28T04:03:06.931Z,21.7
2018-01-28T04:04:06.837Z,21.8
2018-01-28T04:05:06.772Z,21.8
2018-01-28T04:06:06.686Z,21.8
2018-01-28T04:07:06.651Z,21.8
2018-01-28T04:08:06.598Z,21.9
2018-01-28T04:09:06.571Z,21.9
2018-01-28T04:10:06.390Z,21.9
2018-01-28T04:11:06.360Z,21.9
2018-01-28T04:12:06.546Z,21.9
2018-01-28T04:13:06.204Z,21.9
2018-01-28T04:14:06.172Z,21.9
2018-01-28T04:15:06.069Z,22
2018-01-28T04:16:05.896Z,22
2018-01-28T04:17:05.937Z,22
2018-01-28T04:18:06.057Z,22
2018-01-28T04:19:05.643Z,22.1
2018-01-28T04:20:05.743Z,22.1
2018-01-28T04:21:05.599Z,22.1
2018-01-28T04:22:05.436Z,22.1
2018-01-28T04:23:05.329Z,22.2
2018-01-28T04:24:05.603Z,22.3
2018-01-28T04:25:05.185Z,22.3
2018-01-28T04:26:05.110Z,22.4
2018-01-28T04:27:05.050Z,22.4
2018-01-28T04:28:04.936Z,22.4
2018-01-28T04:29:05.038Z,22.5
2018-01-28T04:30:04.913Z,22.6
2018-01-28T04:31:04.712Z,22.6
2018-01-28T04:32:04.685Z,22.6
2018-01-28T04:33:04.543Z,22.6
2018-01-28T04:34:04.606Z,22.6
2018-01-28T04:35:04.413Z,22.7
2018-01-28T04:36:04.322Z,22.7
2018-01-28T04:37:04.404Z,22.7
2018-01-28T04:38:04.149Z,22.9
2018-01-28T04:39:04.099Z,23
2018-01-28T04:40:04.104Z,23.2
2018-01-28T04:41:04.053Z,23.2
2018-01-28T04:42:03.882Z,23.1
2018-01-28T04:43:03.754Z,23.2
2018-01-28T04:44:03.674Z,23.3
2018-01-28T04:45:03.776Z,23.4
2018-01-28T04:46:03.629Z,23.1
2018-01-28T04:47:03.468Z,22.9
2018-01-28T04:48:03.672Z,23
2018-01-28T04:49:03.417Z,23
2018-01-28T04:50:03.237Z,23
2018-01-28T04:51:03.436Z,22.8
2018-01-28T04:52:03.074Z,22.6
2018-01-28T04:53:02.966Z,22.6
2018-01-28T04:54:02.951Z,22.5
2018-01-28T04:55:02.808Z,22.4
2018-01-28T04:56:02.792Z,22.2
2018-01-28T04:57:02.964Z,21.9
2018-01-28T04:58:02.593Z,21.7
2018-01-28T04:59:02.629Z,21.4
2018-01-28T05:00:02.696Z,21
2018-01-28T05:01:02.398Z,20.8
2018-01-28T05:02:02.348Z,20.8
2018-01-28T05:03:02.239Z,20.8
2018-01-28T05:04:02.112Z,20.9
2018-01-28T05:05:02.052Z,21.1
2018-01-28T05:06:02.284Z,21.2
2018-01-28T05:07:02.164Z,21.4
2018-01-28T05:08:01.814Z,21.6
2018-01-28T05:09:01.817Z,21.7
2018-01-28T05:10:01.765Z,21.8
2018-01-28T05:11:01.551Z,21.9
2018-01-28T05:12:01.532Z,22.1
2018-01-28T05:13:01.454Z,22.3
2018-01-28T05:14:01.632Z,22.4
2018-01-28T05:15:01.248Z,22.6
2018-01-28T05:16:01.185Z,22.8
2018-01-28T05:17:01.091Z,22.9
2018-01-28T05:18:01.175Z,23.1
2018-01-28T05:19:00.924Z,23.1
2018-01-28T05:20:00.977Z,23
2018-01-28T05:21:00.776Z,23.1
2018-01-28T05:22:00.824Z,23.2
2018-01-28T05:23:00.786Z,23.3
2018-01-28T05:24:00.612Z,23.1
2018-01-28T05:25:00.474Z,22.9
2018-01-28T05:26:00.380Z,22.9
2018-01-28T05:27:00.297Z,22.9
2018-01-28T05:28:00.291Z,22.9
2018-01-28T05:29:00.282Z,22.7
2018-01-28T05:30:00.110Z,22.6
2018-01-28T05:31:00.049Z,22.4
2018-01-28T05:31:59.953Z,22.3
2018-01-28T05:32:59.944Z,22.1
2018-01-28T05:34:00.108Z,22
2018-01-28T05:34:59.771Z,22
2018-01-28T05:35:59.762Z,21.9
2018-01-28T05:36:59.672Z,21.9
2018-01-28T05:37:59.660Z,21.9
2018-01-28T05:38:59.478Z,21.8
2018-01-28T05:39:59.424Z,21.8
2018-01-28T05:40:59.355Z,21.8
2018-01-28T05:41:59.375Z,21.7
2018-01-28T05:42:59.253Z,21.8
2018-01-28T05:43:59.211Z,21.8
2018-01-28T05:44:59.113Z,21.8
2018-01-28T05:45:59.095Z,21.8
2018-01-28T05:46:58.924Z,21.9
2018-01-28T05:47:59.023Z,21.9
2018-01-28T05:48:58.777Z,21.9
2018-01-28T05:49:58.729Z,22
2018-01-28T05:50:58.952Z,22
2018-01-28T05:51:58.592Z,22
2018-01-28T05:52:58.612Z,22
2018-01-28T05:53:58.453Z,22.1
2018-01-28T05:54:58.534Z,22.1
2018-01-28T05:55:58.291Z,22.2
2018-01-28T05:56:58.246Z,22.3
2018-01-28T05:57:58.259Z,22.2
2018-01-28T05:58:58.121Z,22.1
2018-01-28T05:59:58.026Z,22.1
2018-01-28T06:00:58.006Z,22.1
2018-01-28T06:01:57.888Z,22.1
2018-01-28T06:02:57.922Z,22
2018-01-28T06:03:57.798Z,22
2018-01-28T06:04:57.664Z,22
2018-01-28T06:05:57.665Z,22
2018-01-28T06:06:57.613Z,22
2018-01-28T06:07:57.485Z,22
2018-01-28T06:08:57.404Z,22
2018-01-28T06:09:57.340Z,22.1
2018-01-28T06:10:57.252Z,22.1
2018-01-28T06:11:57.363Z,22.1
2018-01-28T06:12:57.393Z,22.1
2018-01-28T06:13:57.104Z,22.1
2018-01-28T06:14:56.987Z,22.1
2018-01-28T06:15:56.937Z,22.1
2018-01-28T06:16:56.832Z,22.1
2018-01-28T06:17:57.139Z,22.3
2018-01-28T06:18:56.722Z,22.4
2018-01-28T06:19:56.647Z,22.5
2018-01-28T06:20:56.584Z,22.6
2018-01-28T06:21:56.508Z,22.8
2018-01-28T06:22:56.486Z,22.9
2018-01-28T06:23:56.377Z,23.1
2018-01-28T06:24:56.390Z,23.1
2018-01-28T06:25:56.243Z,23.1
2018-01-28T06:26:56.201Z,23.1
2018-01-28T06:27:56.068Z,23.3
2018-01-28T06:28:56.027Z,23.3
2018-01-28T06:29:56.059Z,23.1
2018-01-28T06:30:55.924Z,22.9
2018-01-28T06:31:55.800Z,23
2018-01-28T06:32:55.752Z,23
2018-01-28T06:33:55.687Z,22.9
2018-01-28T06:34:55.597Z,22.8
2018-01-28T06:35:55.698Z,22.6
2018-01-28T06:36:55.447Z,22.6
2018-01-28T06:37:55.674Z,22.5
2018-01-28T06:38:55.656Z,22.4
2018-01-28T06:39:55.350Z,22.4
2018-01-28T06:40:55.196Z,22.4
2018-01-28T06:41:55.235Z,22.3
2018-01-28T06:42:55.027Z,22.3
2018-01-28T06:43:55.022Z,22.3
2018-01-28T06:44:55.002Z,22.2
2018-01-28T06:45:54.956Z,22.1
2018-01-28T06:46:54.841Z,22.1
2018-01-28T06:47:54.861Z,22.1
2018-01-28T06:48:54.703Z,22.1
2018-01-28T06:49:54.702Z,22.1
2018-01-28T06:50:54.614Z,22
2018-01-28T06:51:54.518Z,22.1
2018-01-28T06:52:54.383Z,22.2
2018-01-28T06:53:54.358Z,22.3
2018-01-28T06:54:54.381Z,22.4
2018-01-28T06:55:54.223Z,22.5
2018-01-28T06:56:54.120Z,22.6
2018-01-28T06:57:54.112Z,22.7
2018-01-28T06:58:54.013Z,22.8
2018-01-28T06:59:53.916Z,22.9
2018-01-28T07:00:53.796Z,22.9
2018-01-28T07:01:53.847Z,23.1
2018-01-28T07:02:53.664Z,23.1
2018-01-28T07:03:53.601Z,23.2
2018-01-28T07:04:53.592Z,23.2
2018-01-28T07:05:53.615Z,23.1
2018-01-28T07:06:53.453Z,23.1
2018-01-28T07:07:53.327Z,23.1
2018-01-28T07:08:53.346Z,23.1
2018-01-28T07:09:53.187Z,23.1
2018-01-28T07:10:53.102Z,23.1
2018-01-28T07:11:53.376Z,23.1
2018-01-28T07:12:52.955Z,23.1
2018-01-28T07:13:53.014Z,23.1
2018-01-28T07:14:52.993Z,23.1
2018-01-28T07:15:53.029Z,23.2
2018-01-28T07:16:52.736Z,23.2
2018-01-28T07:17:52.694Z,23.2
2018-01-28T07:18:52.564Z,23.2
2018-01-28T07:19:52.491Z,23.1
2018-01-28T07:20:52.532Z,23.2
2018-01-28T07:21:52.474Z,23.2
2018-01-28T07:22:52.258Z,23.2
2018-01-28T07:23:52.367Z,23.2
2018-01-28T07:24:52.125Z,23.1
2018-01-28T07:25:52.080Z,23.2
2018-01-28T07:26:52.095Z,23.2
2018-01-28T07:27:52.090Z,23.2
2018-01-28T07:28:51.942Z,23.2
2018-01-28T07:29:51.795Z,23.2
2018-01-28T07:30:51.754Z,23.4
2018-01-28T07:31:51.662Z,23.3
2018-01-28T07:32:51.753Z,23.3
2018-01-28T07:33:51.593Z,23.3
2018-01-28T07:34:51.517Z,23.4
2018-01-28T07:35:51.423Z,23.5
2018-01-28T07:36:51.314Z,23.5
2018-01-28T07:37:51.240Z,23.4
2018-01-28T07:38:51.472Z,23.4
2018-01-28T07:39:51.082Z,23.4
2018-01-28T07:40:51.194Z,23.5
2018-01-28T07:41:50.957Z,23.4
2018-01-28T07:42:50.918Z,23.4
2018-01-28T07:43:50.804Z,23.4
2018-01-28T07:44:50.918Z,23.4
2018-01-28T07:45:50.701Z,23.4
2018-01-28T07:46:50.722Z,23.4
2018-01-28T07:47:50.663Z,23.4
2018-01-28T07:48:50.477Z,23.4
2018-01-28T07:49:50.524Z,23.4
2018-01-28T07:50:50.604Z,23.4
2018-01-28T07:51:50.430Z,23.5
2018-01-28T07:52:50.187Z,23.6
2018-01-28T07:53:50.265Z,23.6
2018-01-28T07:54:50.186Z,23.6
2018-01-28T07:55:49.977Z,23.6
2018-01-28T07:56:50.137Z,23.6
2018-01-28T07:57:49.848Z,23.7
2018-01-28T07:58:49.801Z,23.7
2018-01-28T07:59:49.710Z,23.7
2018-01-28T08:00:49.658Z,23.7
2018-01-28T08:01:49.594Z,23.7
2018-01-28T08:02:49.667Z,23.7
2018-01-28T08:03:49.512Z,23.7
2018-01-28T08:04:49.381Z,23.7
2018-01-28T08:05:49.295Z,23.7
2018-01-28T08:06:49.292Z,23.7
2018-01-28T08:07:49.158Z,23.7
2018-01-28T08:08:49.137Z,23.6
2018-01-28T08:09:49.024Z,23.6
2018-01-28T08:10:49.052Z,23.6
2018-01-28T08:11:48.933Z,23.7
2018-01-28T08:12:48.888Z,23.6
2018-01-28T08:13:48.913Z,23.6
2018-01-28T08:14:48.753Z,23.6
2018-01-28T08:15:48.629Z,23.5
2018-01-28T08:16:48.639Z,23.5
2018-01-28T08:17:48.493Z,23.6
2018-01-28T08:18:48.504Z,23.6
2018-01-28T08:19:48.349Z,23.6
2018-01-28T08:20:48.261Z,23.6
2018-01-28T08:21:48.492Z,23.6
2018-01-28T08:22:48.116Z,23.6
2018-01-28T08:23:48.102Z,23.6
2018-01-28T08:24:48.084Z,23.6
2018-01-28T08:25:47.924Z,23.6
2018-01-28T08:26:48.012Z,23.6
2018-01-28T08:27:47.770Z,23.7
2018-01-28T08:28:48.064Z,23.7
2018-01-28T08:29:47.649Z,23.7
2018-01-28T08:30:47.693Z,23.7
2018-01-28T08:31:47.521Z,23.7
2018-01-28T08:32:47.431Z,23.8
2018-01-28T08:33:47.376Z,23.8
2018-01-28T08:34:47.343Z,23.8
2018-01-28T08:35:47.212Z,23.8
2018-01-28T08:36:47.171Z,23.8
2018-01-28T08:37:47.192Z,23.8
2018-01-28T08:38:47.181Z,23.8
2018-01-28T08:39:47.024Z,23.8
2018-01-28T08:40:47.000Z,23.8
2018-01-28T08:41:46.827Z,23.9
2018-01-28T08:42:46.839Z,23.9
2018-01-28T08:43:46.721Z,23.9
2018-01-28T08:44:46.677Z,23.9
2018-01-28T08:45:46.582Z,23.9
2018-01-28T08:46:46.448Z,23.9
2018-01-28T08:47:46.409Z,23.9
2018-01-28T08:48:46.327Z,23.9
2018-01-28T08:49:46.374Z,23.9
2018-01-28T08:50:46.238Z,23.9
2018-01-28T08:51:46.102Z,24.1
2018-01-28T08:52:46.066Z,24.3
2018-01-28T08:53:45.977Z,24.3
2018-01-28T08:54:45.964Z,24.3
2018-01-28T08:55:45.915Z,24.3
2018-01-28T08:56:45.942Z,24.5
2018-01-28T08:57:45.714Z,24.6
2018-01-28T08:58:45.648Z,24.6
2018-01-28T09:00:45.500Z,24.6
2018-01-28T09:01:45.392Z,24.6
2018-01-28T09:02:45.375Z,24.6
2018-01-28T09:03:45.329Z,24.6
2018-01-28T09:04:45.227Z,24.6
2018-01-28T09:05:45.116Z,24.6
2018-01-28T09:06:45.088Z,24.5
2018-01-28T09:07:44.989Z,24.5
2018-01-28T09:08:44.856Z,24.5
2018-01-28T09:09:44.897Z,24.5
2018-01-28T09:10:44.710Z,24.5
2018-01-28T09:11:44.748Z,24.4
2018-01-28T09:12:44.527Z,24.4
2018-01-28T09:13:44.611Z,24.4
2018-01-28T09:14:44.384Z,24.4
2018-01-28T09:15:44.644Z,24.4
2018-01-28T09:16:44.566Z,24.4
2018-01-28T09:17:44.316Z,24.4
2018-01-28T09:18:44.146Z,24.3
2018-01-28T09:19:44.014Z,24.3
2018-01-28T09:20:44.012Z,24.3
2018-01-28T09:21:43.855Z,24.3
2018-01-28T09:22:43.780Z,24.3
2018-01-28T09:23:43.775Z,24.2
2018-01-28T09:24:43.611Z,24.2
2018-01-28T09:25:43.617Z,24.2
2018-01-28T09:26:43.494Z,24.1
2018-01-28T09:27:43.437Z,24.1
2018-01-28T09:28:43.550Z,24.1
2018-01-28T09:29:43.231Z,24.1
2018-01-28T09:30:43.150Z,24.1
2018-01-28T09:31:43.082Z,24
2018-01-28T09:32:42.986Z,24
2018-01-28T09:33:43.163Z,24
2018-01-28T09:34:42.865Z,24
2018-01-28T09:35:42.734Z,24
2018-01-28T09:36:42.671Z,23.9
2018-01-28T09:37:42.600Z,23.9
2018-01-28T09:38:42.770Z,23.9
2018-01-28T09:39:42.473Z,23.9
2018-01-28T09:40:42.343Z,23.9
2018-01-28T09:41:42.281Z,23.9
2018-01-28T09:42:42.188Z,23.9
2018-01-28T09:43:42.121Z,23.9
2018-01-28T09:44:42.012Z,23.9
2018-01-28T09:45:42.083Z,23.9
2018-01-28T09:46:41.974Z,23.9
2018-01-28T09:47:41.793Z,23.9
2018-01-28T09:48:41.728Z,23.9
2018-01-28T09:49:41.620Z,23.9
2018-01-28T09:50:41.607Z,23.9
2018-01-28T09:51:41.575Z,23.9
2018-01-28T09:52:41.415Z,23.9
2018-01-28T09:53:41.329Z,23.9
2018-01-28T09:54:41.324Z,23.9
2018-01-28T09:55:41.327Z,23.9
2018-01-28T09:56:41.438Z,23.9
2018-01-28T09:57:41.278Z,23.9
2018-01-28T09:58:40.943Z,23.9
2018-01-28T09:59:40.849Z,23.9
2018-01-28T10:00:40.790Z,23.9
2018-01-28T10:01:40.817Z,23.9
2018-01-28T10:02:40.888Z,23.8
2018-01-28T10:03:40.657Z,23.8
2018-01-28T10:04:40.554Z,23.8
2018-01-28T10:05:40.426Z,23.8
2018-01-28T10:06:40.382Z,23.8
2018-01-28T10:07:40.567Z,23.8
2018-01-28T10:08:40.411Z,23.8
2018-01-28T10:09:40.070Z,23.8
2018-01-28T10:10:39.969Z,23.9
2018-01-28T10:11:40.081Z,23.8
2018-01-28T10:12:39.928Z,23.8
2018-01-28T10:13:39.775Z,23.8
2018-01-28T10:14:39.773Z,23.8
2018-01-28T10:15:39.611Z,23.8
2018-01-28T10:16:39.500Z,23.7
2018-01-28T10:17:39.470Z,23.6
2018-01-28T10:18:39.377Z,23.6
2018-01-28T10:19:39.361Z,23.7
2018-01-28T10:20:39.367Z,23.7
2018-01-28T10:21:39.197Z,23.6
2018-01-28T10:22:39.213Z,23.6
2018-01-28T10:23:39.269Z,23.6
2018-01-28T10:24:39.008Z,23.6
2018-01-28T10:25:38.817Z,23.6
2018-01-28T10:26:38.784Z,23.6
2018-01-28T10:27:38.636Z,23.6
2018-01-28T10:28:38.629Z,23.6
2018-01-28T10:29:38.570Z,23.6
2018-01-28T10:30:38.535Z,23.6
2018-01-28T10:31:38.337Z,23.6
2018-01-28T10:32:38.606Z,23.6
2018-01-28T10:33:38.279Z,23.6
2018-01-28T10:34:38.100Z,23.6
2018-01-28T10:35:38.054Z,23.6
2018-01-28T10:36:38.050Z,23.6
2018-01-28T10:37:37.922Z,23.6
2018-01-28T10:38:37.775Z,23.6
2018-01-28T10:39:38.057Z,23.6
2018-01-28T10:40:37.899Z,23.5
2018-01-28T10:41:37.559Z,23.5
2018-01-28T10:42:37.490Z,23.5
2018-01-28T10:43:37.694Z,23.4
2018-01-28T10:44:37.490Z,23.4
2018-01-28T10:45:37.315Z,23.4
2018-01-28T10:46:37.187Z,23.4
2018-01-28T10:47:37.188Z,23.4
2018-01-28T10:48:37.060Z,23.4
2018-01-28T10:49:37.037Z,23.4
2018-01-28T10:50:36.864Z,23.4
2018-01-28T10:51:36.898Z,23.4
2018-01-28T10:52:36.697Z,23.4
2018-01-28T10:53:36.613Z,23.4
2018-01-28T10:54:36.655Z,23.4
2018-01-28T10:55:36.447Z,23.4
2018-01-28T10:56:36.546Z,23.5
2018-01-28T10:57:36.324Z,23.5
2018-01-28T10:58:36.226Z,23.6
2018-01-28T10:59:36.156Z,23.6
2018-01-28T11:00:36.047Z,23.6
2018-01-28T11:01:36.148Z,23.6
2018-01-28T11:02:35.904Z,23.6
2018-01-28T11:03:35.842Z,23.6
2018-01-28T11:04:35.790Z,23.5
2018-01-28T11:05:35.667Z,23.6
2018-01-28T11:06:35.647Z,23.6
2018-01-28T11:07:35.515Z,23.6
2018-01-28T11:08:35.450Z,23.6
2018-01-28T11:09:35.339Z,23.6
2018-01-28T11:10:35.447Z,23.6
2018-01-28T11:11:35.274Z,23.6
2018-01-28T11:12:35.176Z,23.6
2018-01-28T11:13:35.053Z,23.6
2018-01-28T11:14:34.948Z,23.6
2018-01-28T11:15:35.223Z,23.5
2018-01-28T11:16:34.820Z,23.4
2018-01-28T11:17:34.852Z,23.4
2018-01-28T11:18:34.747Z,23.4
2018-01-28T11:19:34.700Z,23.4
2018-01-28T11:20:34.479Z,23.5
2018-01-28T11:21:34.752Z,23.5
2018-01-28T11:22:34.603Z,23.5
2018-01-28T11:23:34.272Z,23.4
2018-01-28T11:24:34.276Z,23.5
2018-01-28T11:25:34.122Z,23.6
2018-01-28T11:26:34.120Z,23.6
2018-01-28T11:27:34.282Z,23.6
2018-01-28T11:28:34.133Z,23.6
2018-01-28T11:29:33.791Z,23.6
2018-01-28T11:30:33.760Z,23.6
2018-01-28T11:31:33.614Z,23.6
2018-01-28T11:32:33.604Z,23.6
2018-01-28T11:33:33.458Z,23.6
2018-01-28T11:34:33.418Z,23.6
2018-01-28T11:35:33.317Z,23.6
2018-01-28T11:36:33.250Z,23.6
2018-01-28T11:37:33.187Z,23.6
2018-01-28T11:38:33.064Z,23.6
2018-01-28T11:39:33.061Z,23.6
2018-01-28T11:40:32.926Z,23.7
2018-01-28T11:41:32.998Z,23.7
2018-01-28T11:42:32.801Z,23.7
2018-01-28T11:43:32.782Z,23.6
2018-01-28T11:44:32.935Z,23.7
2018-01-28T11:45:32.709Z,23.8
2018-01-28T11:46:32.647Z,23.8
2018-01-28T11:47:32.473Z,23.8
2018-01-28T11:48:32.436Z,23.7
2018-01-28T11:49:32.392Z,23.8
2018-01-28T11:50:32.231Z,23.8
2018-01-28T11:51:32.348Z,23.8
2018-01-28T11:52:32.110Z,23.8
2018-01-28T11:53:32.153Z,23.8
2018-01-28T11:54:31.991Z,23.8
2018-01-28T11:55:31.976Z,23.7
2018-01-28T11:56:32.005Z,23.7
2018-01-28T11:57:31.763Z,23.7
2018-01-28T11:58:31.829Z,23.6
2018-01-28T11:59:31.704Z,23.6
2018-01-28T12:00:31.605Z,23.7
2018-01-28T12:01:31.509Z,23.7
2018-01-28T12:02:31.522Z,23.6
2018-01-28T12:03:31.372Z,23.6
2018-01-28T12:04:31.448Z,23.5
2018-01-28T12:05:31.285Z,23.5
2018-01-28T12:06:31.157Z,23.5
2018-01-28T12:07:31.075Z,23.4
2018-01-28T12:08:31.019Z,23.4
2018-01-28T12:09:31.066Z,23.4
2018-01-28T12:10:30.943Z,23.4
2018-01-28T12:11:30.923Z,23.4
2018-01-28T12:12:30.825Z,23.4
2018-01-28T12:13:30.822Z,23.4
2018-01-28T12:14:30.574Z,23.4
2018-01-28T12:15:30.568Z,23.4
2018-01-28T12:16:30.720Z,23.3
2018-01-28T12:17:30.391Z,23.3
2018-01-28T12:18:30.312Z,23.3
2018-01-28T12:19:30.548Z,23.2
2018-01-28T12:20:30.160Z,23.2
2018-01-28T12:21:30.269Z,23.1
2018-01-28T12:22:30.021Z,23.1
2018-01-28T12:23:30.016Z,23.1
2018-01-28T12:24:29.907Z,23.1
2018-01-28T12:25:30.130Z,23
2018-01-28T12:26:29.930Z,23
2018-01-28T12:27:29.796Z,22.9
2018-01-28T12:28:29.636Z,23.1
2018-01-28T12:29:29.842Z,22.9
2018-01-28T12:30:29.498Z,22.9
2018-01-28T12:31:29.403Z,22.9
2018-01-28T12:32:29.514Z,22.9
2018-01-28T12:33:29.581Z,22.9
2018-01-28T12:34:29.206Z,22.9
2018-01-28T12:35:29.160Z,22.9
2018-01-28T12:36:29.068Z,22.9
2018-01-28T12:37:29.014Z,22.9
2018-01-28T12:38:29.156Z,23
2018-01-28T12:39:29.025Z,23
2018-01-28T12:40:28.791Z,23
2018-01-28T12:41:28.720Z,23.1
2018-01-28T12:42:28.821Z,23.2
2018-01-28T12:43:28.660Z,23.3
2018-01-28T12:44:28.681Z,23.3
2018-01-28T12:45:28.445Z,23.3
2018-01-28T12:46:28.393Z,23.3
2018-01-28T12:47:28.429Z,23.4
2018-01-28T12:48:28.239Z,23.4
2018-01-28T12:49:28.182Z,23.3
2018-01-28T12:50:28.151Z,23.3
2018-01-28T12:51:28.019Z,23.3
2018-01-28T12:52:27.979Z,23.2
2018-01-28T12:53:27.904Z,23.2
2018-01-28T12:54:27.988Z,23.1
2018-01-28T12:55:27.828Z,23.1
2018-01-28T12:56:27.809Z,23
2018-01-28T12:57:27.632Z,22.9
2018-01-28T12:58:27.548Z,22.8
2018-01-28T12:59:27.527Z,22.8
2018-01-28T13:00:27.491Z,22.8
2018-01-28T13:01:27.441Z,22.7
2018-01-28T13:02:27.287Z,22.6
2018-01-28T13:03:27.276Z,22.5
2018-01-28T13:04:27.186Z,22.4
2018-01-28T13:05:27.085Z,22.3
2018-01-28T13:06:27.092Z,22.3
2018-01-28T13:07:26.940Z,22.3
2018-01-28T13:08:26.930Z,22.3
2018-01-28T13:09:26.958Z,22.4
2018-01-28T13:10:26.719Z,22.5
2018-01-28T13:11:27.011Z,22.6
2018-01-28T13:12:26.678Z,22.6
2018-01-28T13:13:26.795Z,22.8
2018-01-28T13:14:26.605Z,22.9
2018-01-28T13:15:26.421Z,23
2018-01-28T13:16:26.571Z,22.9
2018-01-28T13:17:26.250Z,22.9
2018-01-28T13:18:26.164Z,23
2018-01-28T13:19:26.223Z,23.1
2018-01-28T13:20:26.025Z,23.1
2018-01-28T13:21:25.969Z,23
2018-01-28T13:22:25.903Z,22.9